createdAt,value
2023-03-04T00:00:30.976Z,6.75
2023-03-04T00:02:57.991Z,6.20
2023-03-04T00:05:24.566Z,6.25
2023-03-04T00:07:51.152Z,6.85
2023-03-04T00:10:17.866Z,6.00
2023-03-04T00:12:44.371Z,6.45
2023-03-04T00:15:10.897Z,6.57
2023-03-04T00:17:37.458Z,6.43
2023-03-04T00:20:04.041Z,6.85
2023-03-04T00:22:30.534Z,6.72
2023-03-04T00:24:57.082Z,6.38
2023-03-04T00:27:23.608Z,6.43
2023-03-04T00:29:50.122Z,6.28
2023-03-04T00:32:18.474Z,5.95
2023-03-04T00:34:44.980Z,6.90
2023-03-04T00:37:11.412Z,6.53
2023-03-04T00:39:37.973Z,6.22
2023-03-04T00:42:04.824Z,6.53
2023-03-04T00:44:31.303Z,6.55
2023-03-04T00:46:57.903Z,6.85
2023-03-04T00:49:24.435Z,6.43
2023-03-04T00:51:50.965Z,6.32
2023-03-04T00:54:17.513Z,6.78
2023-03-04T00:56:44.021Z,6.47
2023-03-04T00:59:10.502Z,6.90
2023-03-04T01:01:37.139Z,6.55
2023-03-04T01:04:03.731Z,7.05
2023-03-04T01:06:30.369Z,6.80
2023-03-04T01:08:56.989Z,6.60
2023-03-04T01:11:23.561Z,7.15
2023-03-04T01:13:50.113Z,6.50
2023-03-04T01:16:16.782Z,6.40
2023-03-04T01:18:43.330Z,6.40
2023-03-04T01:21:09.908Z,6.78
2023-03-04T01:23:36.430Z,7.05
2023-03-04T01:26:03.016Z,6.90
2023-03-04T01:28:29.670Z,6.78
2023-03-04T01:30:56.244Z,6.57
2023-03-04T01:33:22.727Z,6.78
2023-03-04T01:35:49.300Z,6.30
2023-03-04T01:38:15.912Z,6.43
2023-03-04T01:40:42.432Z,6.30
2023-03-04T01:43:11.620Z,6.95
2023-03-04T01:45:40.184Z,6.45
2023-03-04T01:48:09.210Z,6.68
2023-03-04T01:50:35.974Z,6.10
2023-03-04T01:53:03.218Z,6.72
2023-03-04T01:55:30.418Z,6.25
2023-03-04T01:58:00.222Z,6.45
2023-03-04T02:00:34.152Z,6.50
2023-03-04T02:03:20.976Z,6.95
2023-03-04T02:05:49.534Z,6.47
2023-03-04T02:08:16.749Z,6.78
2023-03-04T02:10:43.841Z,5.82
2023-03-04T02:13:11.036Z,6.35
2023-03-04T02:15:37.751Z,7.20
2023-03-04T02:18:12.503Z,6.72
2023-03-04T02:20:45.702Z,6.50
2023-03-04T02:23:20.474Z,6.50
2023-03-04T02:26:04.133Z,6.72
2023-03-04T02:28:30.722Z,6.03
2023-03-04T02:30:57.278Z,5.30
2023-03-04T02:33:23.864Z,6.07
2023-03-04T02:35:50.543Z,6.13
2023-03-04T02:38:17.080Z,5.97
2023-03-04T02:40:45.834Z,6.22
2023-03-04T02:43:12.593Z,5.53
2023-03-04T02:45:41.215Z,6.00
2023-03-04T02:48:08.216Z,5.93
2023-03-04T02:50:37.024Z,6.15
2023-03-04T02:53:04.005Z,4.93
2023-03-04T02:55:30.670Z,6.20
2023-03-04T02:57:57.288Z,6.13
2023-03-04T03:00:23.821Z,5.97
2023-03-04T03:02:50.457Z,5.38
2023-03-04T03:05:17.345Z,5.47
2023-03-04T03:07:44.276Z,5.55
2023-03-04T03:10:11.446Z,5.72
2023-03-04T03:12:38.055Z,5.53
2023-03-04T03:15:04.817Z,6.00
2023-03-04T03:17:31.457Z,5.78
2023-03-04T03:19:58.111Z,5.90
2023-03-04T03:22:24.595Z,5.57
2023-03-04T03:24:51.135Z,5.05
2023-03-04T03:27:17.705Z,5.68
2023-03-04T03:29:44.204Z,5.35
2023-03-04T03:32:10.749Z,5.88
2023-03-04T03:34:37.339Z,5.47
2023-03-04T03:37:04.027Z,4.40
2023-03-04T03:39:30.598Z,6.07
2023-03-04T03:41:57.259Z,4.82
2023-03-04T03:44:23.761Z,5.68
2023-03-04T03:46:50.253Z,5.22
2023-03-04T03:49:17.352Z,5.80
2023-03-04T03:51:43.970Z,5.90
2023-03-04T03:54:10.493Z,5.60
2023-03-04T03:56:37.083Z,5.75
2023-03-04T03:59:03.593Z,5.50
2023-03-04T04:01:30.176Z,5.07
2023-03-04T04:03:56.794Z,5.43
2023-03-04T04:06:23.508Z,5.38
2023-03-04T04:08:50.084Z,5.63
2023-03-04T04:11:16.876Z,5.90
2023-03-04T04:13:43.384Z,5.78
2023-03-04T04:16:10.950Z,5.10
2023-03-04T04:18:37.896Z,5.55
2023-03-04T04:21:04.543Z,5.78
2023-03-04T04:23:31.115Z,5.22
2023-03-04T04:25:57.985Z,4.90
2023-03-04T04:28:24.623Z,5.30
2023-03-04T04:30:51.499Z,4.68
2023-03-04T04:33:18.083Z,5.28
2023-03-04T04:35:44.672Z,5.32
2023-03-04T04:38:11.404Z,5.38
2023-03-04T04:40:37.923Z,5.75
2023-03-04T04:43:04.835Z,4.88
2023-03-04T04:45:31.323Z,4.80
2023-03-04T04:47:57.884Z,5.28
2023-03-04T04:50:24.805Z,5.50
2023-03-04T04:52:51.351Z,5.63
2023-03-04T04:55:17.966Z,4.90
2023-03-04T04:57:44.425Z,5.60
2023-03-04T05:00:11.543Z,5.35
2023-03-04T05:02:38.163Z,5.07
2023-03-04T05:05:05.627Z,5.03
2023-03-04T05:07:32.219Z,5.63
2023-03-04T05:09:58.795Z,5.50
2023-03-04T05:12:25.316Z,5.40
2023-03-04T05:14:51.786Z,5.72
2023-03-04T05:17:18.306Z,5.57
2023-03-04T05:19:44.845Z,5.85
2023-03-04T05:22:11.325Z,5.00
2023-03-04T05:24:38.022Z,5.38
2023-03-04T05:27:04.555Z,5.35
2023-03-04T05:29:31.025Z,5.10
2023-03-04T05:31:57.943Z,5.30
2023-03-04T05:34:24.468Z,5.40
2023-03-04T05:36:50.980Z,5.53
2023-03-04T05:39:17.525Z,5.82
2023-03-04T05:41:44.046Z,5.15
2023-03-04T05:44:10.525Z,5.25
2023-03-04T05:46:37.189Z,5.40
2023-03-04T05:49:03.788Z,5.20
2023-03-04T05:51:30.228Z,5.78
2023-03-04T05:53:56.743Z,5.72
2023-03-04T05:56:23.245Z,5.38
2023-03-04T05:58:49.829Z,5.03
2023-03-04T06:01:16.840Z,5.25
2023-03-04T06:03:43.722Z,5.35
2023-03-04T06:06:10.475Z,5.00
2023-03-04T06:08:37.250Z,5.63
2023-03-04T06:11:05.581Z,5.75
2023-03-04T06:13:32.536Z,5.82
2023-03-04T06:15:59.518Z,5.43
2023-03-04T06:18:26.811Z,5.22
2023-03-04T06:20:57.408Z,5.30
2023-03-04T06:23:23.855Z,5.18
2023-03-04T06:25:53.887Z,5.80
2023-03-04T06:28:20.487Z,5.57
2023-03-04T06:30:47.008Z,5.43
2023-03-04T06:33:13.430Z,5.35
2023-03-04T06:35:40.042Z,5.85
2023-03-04T06:38:06.616Z,5.25
2023-03-04T06:40:33.433Z,5.35
2023-03-04T06:43:00.434Z,5.75
2023-03-04T06:45:26.970Z,5.82
2023-03-04T06:47:53.446Z,5.20
2023-03-04T06:50:19.959Z,5.43
2023-03-04T06:52:46.977Z,4.95
2023-03-04T06:55:13.521Z,5.80
2023-03-04T06:57:40.020Z,5.18
2023-03-04T07:00:06.953Z,5.15
2023-03-04T07:02:33.453Z,5.50
2023-03-04T07:05:00.009Z,5.53
2023-03-04T07:07:27.409Z,5.63
2023-03-04T07:09:53.906Z,5.28
2023-03-04T07:12:20.380Z,5.63
2023-03-04T07:14:46.843Z,5.63
2023-03-04T07:17:13.325Z,5.43
2023-03-04T07:19:40.478Z,5.78
2023-03-04T07:22:07.008Z,5.28
2023-03-04T07:24:33.521Z,5.80
2023-03-04T07:27:00.151Z,5.68
2023-03-04T07:29:26.725Z,5.95
2023-03-04T07:31:53.874Z,6.45
2023-03-04T07:34:20.566Z,5.60
2023-03-04T07:36:47.097Z,5.65
2023-03-04T07:39:13.886Z,6.22
2023-03-04T07:41:40.622Z,6.55
2023-03-04T07:44:08.105Z,5.25
2023-03-04T07:46:34.695Z,6.40
2023-03-04T07:49:01.213Z,6.90
2023-03-04T07:51:28.200Z,9.63
2023-03-04T07:53:56.925Z,10.18
2023-03-04T09:49:41.075Z,5.57
2023-03-04T09:52:20.255Z,5.30
2023-03-04T11:34:20.014Z,5.35
2023-03-04T11:36:46.565Z,5.55
2023-03-04T11:39:26.987Z,3.25
2023-03-04T11:41:58.296Z,4.28
2023-03-04T11:44:25.559Z,4.22
2023-03-04T11:47:10.815Z,3.80
2023-03-04T11:49:49.534Z,3.42
2023-03-04T11:52:31.426Z,7.18
2023-03-04T11:55:08.831Z,3.50
2023-03-04T11:57:44.383Z,3.97
2023-03-04T12:00:19.942Z,4.10
2023-03-04T12:03:01.541Z,3.83
2023-03-04T12:05:30.585Z,3.80
2023-03-04T12:07:57.021Z,3.67
2023-03-04T12:10:28.379Z,4.10
2023-03-04T12:13:13.265Z,3.47
2023-03-04T12:15:56.032Z,3.25
2023-03-04T12:18:22.673Z,3.50
2023-03-04T12:20:49.152Z,3.38
2023-03-04T12:23:21.602Z,3.38
2023-03-04T12:25:57.306Z,3.60
2023-03-04T12:28:31.503Z,3.60
2023-03-04T12:31:21.388Z,3.22
2023-03-04T12:34:06.942Z,3.90
2023-03-04T12:36:36.560Z,3.50
2023-03-04T12:39:18.451Z,3.85
2023-03-04T12:41:44.900Z,4.07
2023-03-04T12:44:19.435Z,4.93
2023-03-04T12:47:11.631Z,4.53
2023-03-04T12:49:57.066Z,4.78
2023-03-04T12:52:23.589Z,4.35
2023-03-04T12:54:52.402Z,5.50
2023-03-04T12:57:23.088Z,4.70
2023-03-04T13:00:05.001Z,3.90
2023-03-04T13:02:40.536Z,3.38
2023-03-04T13:05:26.134Z,3.60
2023-03-04T13:07:59.604Z,3.35
2023-03-04T13:10:26.253Z,3.85
2023-03-04T13:12:59.899Z,3.10
2023-03-04T13:15:26.401Z,3.90
2023-03-04T13:17:53.275Z,3.60
2023-03-04T13:20:35.002Z,3.15
2023-03-04T13:23:13.545Z,3.30
2023-03-04T13:25:47.527Z,3.22
2023-03-04T13:28:33.265Z,3.05
2023-03-04T13:31:18.816Z,3.25
2023-03-04T13:33:49.891Z,3.10
2023-03-04T13:36:29.857Z,3.75
2023-03-04T13:39:01.099Z,3.35
2023-03-04T13:41:34.091Z,3.03
2023-03-04T13:44:23.531Z,3.25
2023-03-04T13:46:50.145Z,3.35
2023-03-04T13:49:20.005Z,3.10
2023-03-04T13:51:46.693Z,3.20
2023-03-04T13:54:20.436Z,3.20
2023-03-04T13:56:47.890Z,3.28
2023-03-04T13:59:20.156Z,2.92
2023-03-04T14:01:46.634Z,3.20
2023-03-04T14:04:16.242Z,3.20
2023-03-04T14:06:43.962Z,3.58
2023-03-04T14:09:21.090Z,3.03
2023-03-04T14:11:48.696Z,2.97
2023-03-04T14:14:22.998Z,3.10
2023-03-04T14:16:54.908Z,3.03
2023-03-04T14:19:33.491Z,2.88
2023-03-04T14:22:00.982Z,2.90
2023-03-04T14:24:27.529Z,3.28
2023-03-04T14:27:13.598Z,3.33
2023-03-04T14:29:40.140Z,3.08
2023-03-04T14:32:07.061Z,3.28
2023-03-04T14:34:36.490Z,3.30
2023-03-04T14:37:05.378Z,3.20
2023-03-04T14:39:35.922Z,3.28
2023-03-04T14:42:06.879Z,3.20
2023-03-04T14:44:37.922Z,2.92
2023-03-04T14:47:17.368Z,3.08
2023-03-04T14:49:44.173Z,3.28
2023-03-04T14:52:29.242Z,3.30
2023-03-04T14:55:00.171Z,3.17
2023-03-04T14:57:29.915Z,3.05
2023-03-04T14:59:57.450Z,2.50
2023-03-04T15:02:30.663Z,2.67
2023-03-04T15:05:01.360Z,2.83
2023-03-04T15:07:33.580Z,2.80
2023-03-04T15:10:01.703Z,2.65
2023-03-04T15:12:30.206Z,2.63
2023-03-04T15:15:00.905Z,2.38
2023-03-04T15:17:37.687Z,3.15
2023-03-04T15:20:06.972Z,2.97
2023-03-04T15:22:34.091Z,2.78
2023-03-04T15:25:00.701Z,2.50
2023-03-04T15:27:28.422Z,2.58
2023-03-04T15:29:59.036Z,2.70
2023-03-04T15:32:26.491Z,2.53
2023-03-04T15:34:53.298Z,2.63
2023-03-04T15:37:25.073Z,2.10
2023-03-04T15:39:51.849Z,2.78
2023-03-04T15:42:18.539Z,2.47
2023-03-04T15:44:45.209Z,2.78
2023-03-04T15:47:13.896Z,2.63
2023-03-04T15:49:44.161Z,2.72
2023-03-04T15:52:15.237Z,2.50
2023-03-04T15:54:41.887Z,2.65
2023-03-04T15:57:15.209Z,2.67
2023-03-04T15:59:41.736Z,2.78
2023-03-04T16:02:19.798Z,2.72
2023-03-04T16:04:46.286Z,2.38
2023-03-04T16:07:18.129Z,2.67
2023-03-04T16:09:44.980Z,2.60
2023-03-04T16:12:12.118Z,2.75
2023-03-04T16:14:39.461Z,2.97
2023-03-04T16:17:05.965Z,2.80
2023-03-04T16:19:32.427Z,2.75
2023-03-04T16:21:59.422Z,2.53
2023-03-04T16:24:26.582Z,3.10
2023-03-04T16:26:53.121Z,3.03
2023-03-04T16:29:19.697Z,2.53
2023-03-04T16:31:46.185Z,2.63
2023-03-04T16:34:12.896Z,2.65
2023-03-04T16:36:39.511Z,2.85
2023-03-04T16:39:09.389Z,2.70
2023-03-04T16:41:37.126Z,3.25
2023-03-04T16:44:03.776Z,2.80
2023-03-04T16:46:30.416Z,3.33
2023-03-04T16:48:56.948Z,3.20
2023-03-04T16:51:24.039Z,3.25
2023-03-04T16:53:56.353Z,3.22
2023-03-04T16:56:23.016Z,3.03
2023-03-04T16:58:49.598Z,3.28
2023-03-04T17:01:20.366Z,2.80
2023-03-04T17:03:47.343Z,3.28
2023-03-04T17:06:14.617Z,3.70
2023-03-04T17:08:41.516Z,3.58
2023-03-04T17:11:08.485Z,3.42
2023-03-04T17:13:35.017Z,3.53
2023-03-04T17:16:02.439Z,3.40
2023-03-04T17:18:29.306Z,3.88
2023-03-04T17:21:01.520Z,3.20
2023-03-04T17:23:28.147Z,3.78
2023-03-04T17:25:55.166Z,3.67
2023-03-04T17:28:21.604Z,3.67
2023-03-04T17:30:48.086Z,3.70
2023-03-04T17:33:14.557Z,3.80
2023-03-04T17:35:41.172Z,3.53
2023-03-04T17:38:08.016Z,3.75
2023-03-04T17:40:34.486Z,3.63
2023-03-04T17:43:00.958Z,4.03
2023-03-04T17:45:27.418Z,3.60
2023-03-04T17:47:54.020Z,5.15
2023-03-04T17:50:21.356Z,3.70
2023-03-04T17:52:47.867Z,3.45
2023-03-04T17:55:14.380Z,4.57
2023-03-04T17:57:40.981Z,4.20
2023-03-04T18:00:07.905Z,4.00
2023-03-04T18:02:34.417Z,3.85
2023-03-04T18:05:02.269Z,3.70
2023-03-04T18:07:29.389Z,3.53
2023-03-04T18:09:56.118Z,4.28
2023-03-04T18:12:22.732Z,4.32
2023-03-04T18:14:49.368Z,4.15
2023-03-04T18:17:16.058Z,4.53
2023-03-04T18:19:42.770Z,4.50
2023-03-04T18:22:09.365Z,4.40
2023-03-04T18:24:36.212Z,3.78
2023-03-04T18:27:02.721Z,3.97
2023-03-04T18:29:30.028Z,4.43
2023-03-04T18:31:57.048Z,4.45
2023-03-04T18:34:23.910Z,4.30
2023-03-04T18:36:52.405Z,4.70
2023-03-04T18:39:19.100Z,4.53
2023-03-04T18:41:45.653Z,4.47
2023-03-04T18:44:12.244Z,4.65
2023-03-04T18:46:50.890Z,4.80
2023-03-04T18:49:18.712Z,5.40
2023-03-04T18:51:46.124Z,4.82
2023-03-04T18:54:12.717Z,4.68
2023-03-04T18:56:42.084Z,4.75
2023-03-04T18:59:31.405Z,4.72
2023-03-04T19:01:58.981Z,4.28
2023-03-04T19:04:26.775Z,4.10
2023-03-04T19:06:53.754Z,4.30
2023-03-04T19:09:20.662Z,4.03
2023-03-04T19:11:47.601Z,2.92
2023-03-04T19:14:14.161Z,3.53
2023-03-04T19:16:40.879Z,3.90
2023-03-04T19:19:07.733Z,3.40
2023-03-04T19:21:38.208Z,3.33
2023-03-04T19:24:05.570Z,3.72
2023-03-04T19:26:32.162Z,3.42
2023-03-04T19:28:58.642Z,3.55
2023-03-04T19:31:25.930Z,3.33
2023-03-04T19:33:52.796Z,2.78
2023-03-04T19:36:19.245Z,3.40
2023-03-04T19:38:45.721Z,3.35
2023-03-04T19:41:15.975Z,3.60
2023-03-04T19:43:42.671Z,3.25
2023-03-04T19:46:09.855Z,3.25
2023-03-04T19:48:36.950Z,2.97
2023-03-04T19:51:04.813Z,2.80
2023-03-04T19:53:34.603Z,3.25
2023-03-04T19:56:01.462Z,2.75
2023-03-04T19:58:28.082Z,2.88
2023-03-04T20:00:56.498Z,2.97
2023-03-04T20:03:24.113Z,3.60
2023-03-04T20:05:50.626Z,2.72
2023-03-04T20:08:17.181Z,2.72
2023-03-04T20:10:43.731Z,2.90
2023-03-04T20:13:10.438Z,3.10
2023-03-04T20:15:37.794Z,3.13
2023-03-04T20:18:04.487Z,3.03
2023-03-04T20:20:31.057Z,2.72
2023-03-04T20:22:58.056Z,2.78
2023-03-04T20:25:25.007Z,2.80
2023-03-04T20:27:51.535Z,2.75
2023-03-04T20:30:18.258Z,2.67
2023-03-04T20:32:45.477Z,2.70
2023-03-04T20:35:15.045Z,2.42
2023-03-04T20:37:42.432Z,2.85
2023-03-04T20:40:10.695Z,2.50
2023-03-04T20:42:37.255Z,2.40
2023-03-04T20:45:04.386Z,2.67
2023-03-04T20:47:31.303Z,2.13
2023-03-04T20:49:57.972Z,2.55
2023-03-04T20:52:24.511Z,2.78
2023-03-04T20:54:51.012Z,2.40
2023-03-04T20:57:17.536Z,2.30
2023-03-04T20:59:44.093Z,2.33
2023-03-04T21:02:12.903Z,2.40
2023-03-04T21:04:39.400Z,2.40
2023-03-04T21:07:05.952Z,2.63
2023-03-04T21:09:32.475Z,2.03
2023-03-04T21:12:00.808Z,2.10
2023-03-04T21:14:31.382Z,2.40
2023-03-04T21:16:59.212Z,2.58
2023-03-04T21:19:27.599Z,2.45
2023-03-04T21:21:55.332Z,2.35
2023-03-04T21:24:23.159Z,1.88
2023-03-04T21:26:49.803Z,2.40
2023-03-04T21:29:18.283Z,2.55
2023-03-04T21:31:46.631Z,2.05
2023-03-04T21:34:31.976Z,2.70
2023-03-04T21:36:58.542Z,2.17
2023-03-04T21:39:25.454Z,2.00
2023-03-04T21:41:52.804Z,2.20
2023-03-04T21:44:28.231Z,1.83
2023-03-04T21:46:56.034Z,2.08
2023-03-04T21:49:22.864Z,2.38
2023-03-04T21:51:49.455Z,1.90
2023-03-04T21:54:16.556Z,2.28
2023-03-04T21:56:43.244Z,2.30
2023-03-04T21:59:11.609Z,2.15
2023-03-04T22:01:38.265Z,1.95
2023-03-04T22:04:04.959Z,2.15
2023-03-04T22:06:33.562Z,2.28
2023-03-04T22:09:01.454Z,2.00
2023-03-04T22:11:28.622Z,2.40
2023-03-04T22:13:55.843Z,2.10
2023-03-04T22:16:22.779Z,2.20
2023-03-04T22:18:49.635Z,1.65
2023-03-04T22:21:17.705Z,2.20
2023-03-04T22:23:44.238Z,1.95
2023-03-04T22:26:15.016Z,2.30
2023-03-04T22:28:42.421Z,2.20
2023-03-04T22:31:16.878Z,2.00
2023-03-04T22:33:44.861Z,2.55
2023-03-04T22:36:12.009Z,2.10
2023-03-04T22:38:38.779Z,2.05
2023-03-04T22:41:05.812Z,2.13
2023-03-04T22:43:32.572Z,2.20
2023-03-04T22:46:00.376Z,2.20
2023-03-04T22:48:27.176Z,1.90
2023-03-04T22:50:53.750Z,2.30
2023-03-04T22:53:20.298Z,2.33
2023-03-04T22:55:46.865Z,2.45
2023-03-04T22:58:13.415Z,2.10
2023-03-04T23:00:39.975Z,1.88
2023-03-04T23:03:06.693Z,2.03
2023-03-04T23:05:33.195Z,2.28
2023-03-04T23:07:59.761Z,1.92
2023-03-04T23:10:26.327Z,2.17
2023-03-04T23:12:52.863Z,1.95
2023-03-04T23:15:19.457Z,2.10
2023-03-04T23:17:46.536Z,2.10
2023-03-04T23:20:14.822Z,1.98
2023-03-04T23:22:41.322Z,2.00
2023-03-04T23:25:08.271Z,2.10
2023-03-04T23:27:34.832Z,2.03
2023-03-04T23:30:01.426Z,1.90
2023-03-04T23:32:27.988Z,2.47
2023-03-04T23:34:55.553Z,1.92
2023-03-04T23:37:22.735Z,2.03
2023-03-04T23:39:49.613Z,2.10
2023-03-04T23:42:16.268Z,2.20
2023-03-04T23:44:42.757Z,1.90
2023-03-04T23:47:09.347Z,1.88
2023-03-04T23:49:35.906Z,2.00
2023-03-04T23:52:02.348Z,2.30
2023-03-04T23:54:28.961Z,1.70
2023-03-04T23:56:55.410Z,2.08
2023-03-04T23:59:22.004Z,2.03
